Sikuliaq — WDG7520 — position and weather

sailwx.info

Track history (hours):
 
Tides and Currents Weather Stations Pressure Air Temp Water Temp Dewpoint Dewpoint Depression Visibility Wind Speed Wind Dir Waves Ship Positions

Oceanographic research ship Sikuliaq (USA)

Owner: Mackay Communications, Raleigh, NC. More information available from US FCC via Universal Licensing System.

Last reported at 2017-Oct-19 16:00 UTC. Time now 2017-Oct-19 16:37 UTC.
Position N 41°42' W 125°06'.

Length 80 m; draft 5.5 m.

Type: Other ship. MMSI: 338417000.

Wind from 170 at 33 knots

Barometer 1007.7 mb
Air temperature 12.8 ° C

Date/timePositionNaut miles runAvg speedWind from/ knotsBaromVisibWave heightAir tempDewpointWater temp
2017-Oct-19 16:00N 41°42' W 125°06'6 6.0 170 / 331007.7 12.8
2017-Oct-19 15:00N 41°48' W 125°06'7 7.5 170 / 291007.6 12.7
2017-Oct-19 14:00N 41°54' W 125°12'1212.0 170 / 291008.3 12.5
2017-Oct-19 13:00N 42°06' W 125°12'1212.0 160 / 261008.3 12.5
2017-Oct-19 12:00N 42°18' W 125°12'6 6.0 160 / 251008.5 12.5
2017-Oct-19 11:00N 42°24' W 125°12'1212.0 160 / 291008.2 12.9
2017-Oct-19 10:00N 42°36' W 125°12'1212.0 170 / 281008.6 13.2
2017-Oct-19 09:00N 42°48' W 125°12'6 6.0 170 / 281009.0 13.1
2017-Oct-19 08:00N 42°54' W 125°12'7 7.4 170 / 311008.7 13.1
2017-Oct-19 07:00N 43°00' W 125°06'1212.0 170 / 331009.0 13.3
2017-Oct-19 06:00N 43°12' W 125°06'7 7.4 170 / 311009.5 13.2
2017-Oct-19 05:00N 43°18' W 125°00'1212.0 180 / 301009.8 13.6
2017-Oct-19 04:00N 43°30' W 125°00'7 7.4 180 / 301010.0 13.5
2017-Oct-19 03:00N 43°36' W 124°54'1312.8 180 / 291010.3 13.7
2017-Oct-19 02:00N 43°48' W 124°48'7 7.4 180 / 261010.4 13.9
2017-Oct-19 01:00N 43°54' W 124°42'1312.8 180 / 271010.9 13.7
2017-Oct-19 00:00N 44°06' W 124°36'6 6.0 190 / 261011.6 13.5
2017-Oct-18 23:00N 44°12' W 124°36'1212.4 180 / 271011.7 13.3
2017-Oct-18 22:03N 44°22' W 124°27'349.1
2017-Oct-18 22:00N 44°24' W 124°24'234.8 180 / 251012.1 12.8
2017-Oct-18 21:56N 44°23' W 124°26'9 9.9
2017-Oct-18 21:00N 44°30' W 124°18'1010.4 180 / 271012.4 12.7
2017-Oct-18 20:00N 44°36' W 124°06'4 4.3 190 / 261013.1 12.8
2017-Oct-18 19:00N 44°36' W 124°00'0 0.0 210 / 161013.9 14.1
2017-Oct-18 18:00N 44°36' W 124°00'0 0.0 210 / 171014.3 14.6
2017-Oct-18 17:00N 44°36' W 124°00'0 0.0 200 / 71014.5 14.5
2017-Oct-18 16:00N 44°36' W 124°00'0 0.0 210 / 151014.7 13.6
2017-Oct-18 15:00N 44°36' W 124°00'0 0.0 200 / 121015.2 13.1
2017-Oct-18 14:00N 44°36' W 124°00'0 0.0 190 / 41015.9 12.8
2017-Oct-18 13:00N 44°36' W 124°00'0 0.0 210 / 81016.1 12.7
2017-Oct-18 12:00N 44°36' W 124°00'0 0.0 210 / 61016.4 12.2
2017-Oct-18 11:00N 44°36' W 124°00'0 0.0 240 / 41017.1 11.7
2017-Oct-18 10:00N 44°36' W 124°00'0 0.0 210 / 41017.6 12.2
2017-Oct-18 09:00N 44°36' W 124°00'0 0.0 230 / 51018.0 12.2
2017-Oct-18 08:00N 44°36' W 124°00'0 0.0 210 / 81018.2 12.4
2017-Oct-18 07:00N 44°36' W 124°00'0 0.0 230 / 61018.4 12.2
2017-Oct-18 06:00N 44°36' W 124°00'0 0.0 190 / 31018.8 12.4
2017-Oct-18 05:00N 44°36' W 124°00'0 0.0 170 / 11019.4 12.3
2017-Oct-18 04:00N 44°36' W 124°00'0 0.0 110 / 11019.7 12.2
2017-Oct-18 03:00N 44°36' W 124°00'0 0.0 280 1020.2 11.9
2017-Oct-18 02:00N 44°36' W 124°00'0 0.0 320 / 11020.4 12.2
2017-Oct-18 01:00N 44°36' W 124°00'0 0.0 220 / 31020.7 12.4
2017-Oct-18 00:00N 44°36' W 124°00'0 0.0 250 / 31021.5 12.4
2017-Oct-17 23:00N 44°36' W 124°00'0 0.0 210 / 61021.6 12.6
2017-Oct-17 22:00N 44°36' W 124°00'0 0.0 210 / 111021.4 12.812.7
2017-Oct-17 21:00N 44°36' W 124°00'0 0.0 220 / 81021.4 13.212.6
2017-Oct-17 20:00N 44°36' W 124°00'0 0.0 230 / 91021.6 12.712.7
2017-Oct-17 19:00N 44°36' W 124°00'0 0.0 220 / 91021.3 14.111.7
2017-Oct-17 18:00N 44°36' W 124°00'0 0.0 210 / 51021.3 14.312.0
2017-Oct-17 17:00N 44°36' W 124°00'0 0.0 180 / 51021.4 13.512.0
2017-Oct-17 16:00N 44°36' W 124°00'0 0.0 120 / 61021.1 10.910.9
2017-Oct-17 15:00N 44°36' W 124°00'0 0.0 110 / 51020.6 9.9
2017-Oct-17 14:00N 44°36' W 124°00'0 0.0 110 / 51019.8 9.0
2017-Oct-17 13:00N 44°36' W 124°00'0 0.0 120 / 71020.4 7.9
2017-Oct-17 12:00N 44°36' W 124°00'0 0.0 110 / 51020.6 7.4
2017-Oct-17 11:00N 44°36' W 124°00'0 0.0 110 / 61020.0 7.1
2017-Oct-17 10:00N 44°36' W 124°00'0 0.0 120 / 51020.2 7.5
2017-Oct-17 09:00N 44°36' W 124°00'0 0.0 130 / 51019.9 7.7
2017-Oct-17 08:00N 44°36' W 124°00'0 0.0 110 / 51019.5 7.9
2017-Oct-17 07:00N 44°36' W 124°00'0 0.0 110 / 51019.6 8.5
2017-Oct-17 06:00N 44°36' W 124°00'0 0.0 050 / 21019.7 8.9
2017-Oct-17 05:00N 44°36' W 124°00'0 0.0 100 / 21020.1 9.6
2017-Oct-17 04:00N 44°36' W 124°00'0 0.0 110 / 41020.5 10.3
2017-Oct-17 03:00N 44°36' W 124°00'0 0.0 070 / 21021.0 11.310.4
2017-Oct-17 02:00N 44°36' W 124°00'0 0.0 050 / 21021.1 12.210.7
2017-Oct-17 01:00N 44°36' W 124°00'0 0.0 340 / 71021.5 13.011.0
2017-Oct-17 00:00N 44°36' W 124°00'0 0.0 340 / 141021.9 13.210.6
2017-Oct-16 23:00N 44°36' W 124°00'0 0.0 330 / 181022.5 13.510.6
2017-Oct-16 22:00N 44°36' W 124°00'0 0.0 330 / 121022.3 13.710.3
2017-Oct-16 21:00N 44°36' W 124°00'0 0.0 320 / 111022.7 13.810.2
2017-Oct-16 20:00N 44°36' W 124°00'0 0.0 310 / 121023.5 12.810.2
2017-Oct-16 19:00N 44°36' W 124°00'3 7.6 300 / 41024.1 12.010.2
2017-Oct-16 18:36N 44°37' W 124°04'1 6.7
2017-Oct-16 18:27N 44°36' W 124°05'1 1.6
2017-Oct-16 18:00N 44°36' W 124°06'1492.4 350 / 121024.5 10.810.8
2017-Oct-16 17:59N 44°36' W 124°08'0 0.1
2017-Oct-16 17:29N 44°36' W 124°08'1 2.8
2017-Oct-16 17:00N 44°36' W 124°06'1379.3 060 / 31024.5 9.9 9.1
2017-Oct-16 16:59N 44°36' W 124°08'0 0.0
2017-Oct-16 16:30N 44°36' W 124°08'3 5.7
2017-Oct-16 16:00N 44°36' W 124°12'1 3.2 070 / 41024.3 9.4 11.8
2017-Oct-16 15:44N 44°37' W 124°13'2 8.4
2017-Oct-16 15:27N 44°37' W 124°16'612.0
2017-Oct-16 15:00N 44°42' W 124°18'2678.8 020 / 151023.6 11.2 12.1
2017-Oct-16 14:59N 44°40' W 124°18'3 5.5
2017-Oct-16 14:30N 44°38' W 124°20'2 4.3
2017-Oct-16 14:00N 44°36' W 124°18'4 7.3 010 / 101023.8 11.5 12.0
2017-Oct-16 13:30N 44°40' W 124°18'4 7.0
2017-Oct-16 13:00N 44°36' W 124°18'2270.7 020 / 131023.2 11.8 12.0
2017-Oct-16 12:59N 44°37' W 124°19'2 3.6
2017-Oct-16 12:29N 44°39' W 124°18'1 2.4
2017-Oct-16 12:00N 44°38' W 124°18'2153.4
2017-Oct-16 12:00N 44°36' W 124°18'4 6.3 010 / 141023.2 11.7 12.0
2017-Oct-16 11:21N 44°40' W 124°20'3 7.6
2017-Oct-16 11:00N 44°37' W 124°20'2204.1
2017-Oct-16 11:00N 44°36' W 124°18'6 6.0 010 / 151023.6 12.012.012.0
2017-Oct-16 10:00N 44°42' W 124°18'5 9.4 010 / 161023.8 11.9 12.1
2017-Oct-16 09:30N 44°39' W 124°23'0 0.1
2017-Oct-16 09:01N 44°39' W 124°23'3172.7
2017-Oct-16 09:00N 44°42' W 124°24'4 4.8 1023.8 11.8 11.8
2017-Oct-16 08:03N 44°40' W 124°18'0 3.0
2017-Oct-16 08:00N 44°40' W 124°18'2146.7
2017-Oct-16 08:00N 44°42' W 124°18'6 6.0 010 / 121023.5 11.9 12.1
2017-Oct-16 07:00N 44°36' W 124°18'315.8 1023.8 12.1 12.2
2017-Oct-16 06:47N 44°39' W 124°19'1 3.9
2017-Oct-16 06:29N 44°38' W 124°18'0 0.9
2017-Oct-16 06:00N 44°38' W 124°18'2145.2
2017-Oct-16 06:00N 44°36' W 124°18'0 0.0 010 / 161023.9 12.3 12.2
2017-Oct-16 05:00N 44°36' W 124°18'4 5.7 1023.8 12.312.311.8
2017-Oct-16 04:21N 44°39' W 124°20'1 2.9
2017-Oct-16 04:00N 44°38' W 124°20'3205.0
2017-Oct-16 04:00N 44°36' W 124°18'0 0.0 010 / 181023.8 12.412.411.8
2017-Oct-16 03:00N 44°36' W 124°18'221.2 1023.8 12.412.411.8
2017-Oct-16 02:55N 44°38' W 124°18'2 1.8
2017-Oct-16 02:00N 44°36' W 124°18'6 8.6 010 / 181023.3 12.412.212.0
2017-Oct-16 01:19N 44°39' W 124°11'514.3
2017-Oct-16 01:00N 44°42' W 124°06'363.0 360 / 161022.9 11.9 11.9
2017-Oct-16 00:57N 44°39' W 124°07'1 1.8
2017-Oct-16 00:30N 44°40' W 124°06'2 4.8
2017-Oct-16 00:00N 44°42' W 124°06'2 8.5 350 / 151022.9 11.911.511.9
2017-Oct-15 23:42N 44°40' W 124°06'2 4.2
2017-Oct-15 23:19N 44°39' W 124°08'2 7.9
2017-Oct-15 23:01N 44°39' W 124°11'3179.3
2017-Oct-15 23:00N 44°36' W 124°12'5 6.8 350 / 141023.0 12.112.012.2
2017-Oct-15 22:16N 44°38' W 124°18'2 7.9
2017-Oct-15 22:00N 44°36' W 124°18'223.9 350 / 121023.6 12.211.812.1
2017-Oct-15 21:54N 44°38' W 124°18'1 1.3
2017-Oct-15 21:17N 44°39' W 124°19'0 0.4
2017-Oct-15 21:00N 44°39' W 124°19'3184.1
2017-Oct-15 21:00N 44°36' W 124°18'3 5.2 1023.8 11.811.212.0
2017-Oct-15 20:30N 44°39' W 124°19'0 0.4
2017-Oct-15 20:01N 44°38' W 124°19'2147.4
2017-Oct-15 20:00N 44°36' W 124°18'2 3.7 350 / 81024.3 11.710.811.8
2017-Oct-15 19:25N 44°38' W 124°18'2 5.2
2017-Oct-15 19:00N 44°36' W 124°18'210.3 340 / 61024.6 11.6 9.811.8
2017-Oct-15 18:48N 44°38' W 124°18'0 0.1
2017-Oct-15 18:24N 44°38' W 124°18'2 4.8
2017-Oct-15 18:00N 44°36' W 124°18'0 0.0 050 / 41024.4 11.7 9.111.7
2017-Oct-15 17:00N 44°36' W 124°18'0 0.0 020 / 51024.4 11.5 9.311.7
2017-Oct-15 16:00N 44°36' W 124°18'0 0.0 1024.3 11.2 7.611.7
2017-Oct-15 15:00N 44°36' W 124°18'0 0.0 030 / 71024.0 11.1 7.911.7
2017-Oct-15 14:00N 44°36' W 124°18'6 6.0 030 / 71024.2 11.1 7.911.8
2017-Oct-15 13:00N 44°42' W 124°18'6 6.0 050 / 71024.4 10.9 7.211.9
2017-Oct-15 12:00N 44°36' W 124°18'0 0.0 030 / 81024.6 11.5 9.011.9
2017-Oct-15 11:00N 44°36' W 124°18'0 0.0 020 / 91025.3 11.7 8.912.0
2017-Oct-15 10:00N 44°36' W 124°18'6 6.0 010 / 61025.9 11.4 7.912.1
2017-Oct-15 09:00N 44°42' W 124°18'6 6.0 040 / 121025.9 11.3 9.512.0
2017-Oct-15 08:00N 44°36' W 124°18'0 0.0 020 / 171026.1 11.8 8.911.9
2017-Oct-15 07:00N 44°36' W 124°18'0 0.0 030 / 121026.6 11.6 9.611.9
2017-Oct-15 06:00N 44°36' W 124°18'7 7.4 050 / 151027.4 12.0 9.512.0
2017-Oct-15 05:00N 44°42' W 124°12'4 4.3 030 / 91027.9 11.8 8.412.0
2017-Oct-15 04:00N 44°42' W 124°06'0 0.0 130 / 31028.0 10.810.012.0
2017-Oct-15 03:00N 44°42' W 124°06'0 0.0 010 / 91028.1 11.7 8.912.0
2017-Oct-15 02:00N 44°42' W 124°06'0 0.0 010 / 141028.3 12.1 9.212.1
2017-Oct-15 01:00N 44°42' W 124°06'6 6.0 360 / 151028.9 11.8 8.712.1
2017-Oct-15 00:00N 44°36' W 124°06'4 4.3 350 / 171029.1 11.9 8.912.1
2017-Oct-14 23:00N 44°36' W 124°12'5 5.4 350 / 151030.0 12.0 8.412.3
2017-Oct-14 22:03N 44°38' W 124°18'238.3
2017-Oct-14 22:00N 44°36' W 124°18'0 0.0 1030.9 11.6 6.212.2
2017-Oct-14 21:00N 44°36' W 124°18'339.5 020 / 91031.4 11.1 7.312.2
2017-Oct-14 20:56N 44°39' W 124°19'3 2.7
2017-Oct-14 20:00N 44°36' W 124°18'2 6.4 040 / 81031.9 11.9 8.312.1
2017-Oct-14 19:37N 44°38' W 124°18'2 4.0
2017-Oct-14 19:00N 44°36' W 124°18'0 0.0 080 / 101032.2 10.9 7.511.9
2017-Oct-14 18:00N 44°36' W 124°18'2 3.4 090 / 101032.5 9.9 7.411.9
2017-Oct-14 17:24N 44°38' W 124°18'2 5.1
2017-Oct-14 17:00N 44°36' W 124°18'214.7 100 / 71032.7 9.9 7.711.8
2017-Oct-14 16:51N 44°38' W 124°18'0 0.0
2017-Oct-14 16:30N 44°38' W 124°18'2 4.0
2017-Oct-14 16:00N 44°36' W 124°18'0 0.0 100 / 81032.5 8.6 7.611.8
2017-Oct-14 15:00N 44°36' W 124°18'0 0.0 110 / 51032.4 8.0 8.012.0
2017-Oct-14 14:00N 44°36' W 124°18'0 0.0 100 / 71032.3 8.8 8.812.1
2017-Oct-14 13:00N 44°36' W 124°18'0 0.0 090 / 81032.3 8.7 8.712.1
2017-Oct-14 12:00N 44°36' W 124°18'4 4.3 100 / 51032.0 8.9 8.912.0
2017-Oct-14 11:00N 44°36' W 124°24'414.7 100 / 61031.6 10.210.212.4
2017-Oct-14 10:45N 44°38' W 124°28'310.3
2017-Oct-14 10:28N 44°36' W 124°32'713.9
2017-Oct-14 10:00N 44°30' W 124°36'1010.5 110 / 31031.5 11.9 9.812.7
2017-Oct-14 09:00N 44°24' W 124°48'4 4.3 090 / 71031.1 12.5 9.613.4
2017-Oct-14 08:00N 44°24' W 124°54'0 0.0 030 / 111030.7 13.2 7.714.3
2017-Oct-14 07:00N 44°24' W 124°54'4 4.3 030 / 111030.5 13.3 7.214.2
2017-Oct-14 06:00N 44°24' W 125°00'7 7.4 050 / 71030.1 13.0 9.014.3
2017-Oct-14 05:00N 44°18' W 124°54'7 7.4 070 / 81029.4 13.0 9.114.2
2017-Oct-14 04:00N 44°24' W 125°00'0 0.0 020 / 151028.6 13.7 7.914.2
2017-Oct-14 03:00N 44°24' W 125°00'0 0.0 050 / 121028.1 13.5 9.214.2
2017-Oct-14 02:00N 44°24' W 125°00'0 0.0 010 / 121027.3 13.7 9.014.1
2017-Oct-14 01:00N 44°24' W 125°00'4 4.3 020 / 131026.6 13.810.314.2
2017-Oct-14 00:00N 44°24' W 124°54'0 0.0 340 / 81025.9 13.710.914.2
2017-Oct-13 23:00N 44°24' W 124°54'0 0.0 330 / 41025.6 13.311.514.2
2017-Oct-13 22:00N 44°24' W 124°54'4 4.3 340 / 51025.1 12.911.214.3
2017-Oct-13 21:00N 44°24' W 125°00'0 0.0 010 / 61024.9 12.511.914.5
2017-Oct-13 20:00N 44°24' W 125°00'0 0.0 010 / 61024.7 11.9 14.4
2017-Oct-13 19:00N 44°24' W 125°00'4 4.3 310 / 181024.2 13.911.514.3
2017-Oct-13 18:00N 44°24' W 124°54'0 0.0 280 / 111023.7 13.012.014.3
2017-Oct-13 17:00N 44°24' W 124°54'0 0.0 300 / 81023.4 12.511.514.2
2017-Oct-13 16:00N 44°24' W 124°54'0 0.0 330 / 61023.1 12.712.414.2
2017-Oct-13 15:00N 44°24' W 124°54'0 0.0 340 / 181022.5 12.6 14.1
2017-Oct-13 14:00N 44°24' W 124°54'0 0.0 290 / 151022.3 13.911.114.0
2017-Oct-13 13:00N 44°24' W 124°54'0 0.0 270 / 151022.3 13.011.214.0
2017-Oct-13 12:00N 44°24' W 124°54'0 0.0 280 / 141022.2 13.712.313.9
2017-Oct-13 11:00N 44°24' W 124°54'0 0.0 280 / 151022.4 13.512.313.9
2017-Oct-13 10:00N 44°24' W 124°54'0 0.0 270 / 141022.5 13.612.314.0
2017-Oct-13 09:00N 44°24' W 124°54'0 0.0 270 / 151022.4 13.711.614.0
2017-Oct-13 08:00N 44°24' W 124°54'0 0.0 270 / 121022.6 13.712.314.2
2017-Oct-13 07:00N 44°24' W 124°54'0 0.0 280 / 161022.4 13.811.414.4
2017-Oct-13 06:00N 44°24' W 124°54'4 4.3 260 / 71022.4 12.912.214.5
2017-Oct-13 05:00N 44°24' W 125°00'0 0.0 280 / 121022.1 13.612.514.4
2017-Oct-13 04:00N 44°24' W 125°00'4 4.3 310 / 101021.8 13.811.714.3
2017-Oct-13 03:00N 44°24' W 124°54'1010.5 300 / 151021.2 13.912.014.2
2017-Oct-13 02:00N 44°30' W 124°42'9 8.6 310 / 121020.6 12.812.313.1
2017-Oct-13 01:00N 44°30' W 124°30'1010.4 270 / 91020.2 13.112.513.0
2017-Oct-13 00:00N 44°36' W 124°18'4 4.3 260 / 121020.1 13.012.012.2
2017-Oct-12 23:00N 44°36' W 124°12'7 7.4 260 / 111020.1 12.611.712.0
2017-Oct-12 22:00N 44°42' W 124°06'0 0.0 260 / 131020.1 12.011.012.2
2017-Oct-12 21:00N 44°42' W 124°06'0 0.0 250 / 121020.2 12.311.212.2
2017-Oct-12 20:00N 44°42' W 124°06'0 0.0 220 / 141020.1 12.412.412.2
2017-Oct-12 19:00N 44°42' W 124°06'0 0.0 220 / 141020.0 12.611.412.1
2017-Oct-12 18:00N 44°42' W 124°06'0 0.0 230 / 151019.8 12.311.812.1
2017-Oct-12 17:00N 44°42' W 124°06'0 0.0 230 / 161019.8 12.412.412.2
2017-Oct-12 16:00N 44°42' W 124°06'0 0.0 240 / 171019.6 12.412.412.1
2017-Oct-12 15:00N 44°42' W 124°06'7 7.4 220 / 181019.3 12.612.612.1
2017-Oct-12 14:00N 44°36' W 124°12'4 4.3 220 / 181019.4 12.1 12.3
2017-Oct-12 13:00N 44°36' W 124°18'0 0.0 230 / 151019.8 12.112.111.9
2017-Oct-12 12:00N 44°36' W 124°18'0 0.0 230 / 171020.2 11.911.812.0
2017-Oct-12 11:00N 44°36' W 124°18'0 0.0 200 / 211020.3 11.9 12.1
2017-Oct-12 10:00N 44°36' W 124°18'9 8.5 180 / 241021.0 11.3 12.5
2017-Oct-12 09:00N 44°36' W 124°30'1010.4 180 / 191021.5 11.811.811.6
2017-Oct-12 08:00N 44°30' W 124°42'1010.5 170 / 91022.2 11.711.012.0
2017-Oct-12 07:00N 44°24' W 124°54'4 4.3 330 / 71022.5 12.910.713.2
2017-Oct-12 06:00N 44°24' W 125°00'0 0.0 280 / 141022.7 13.510.713.7
2017-Oct-12 05:00N 44°24' W 125°00'7 7.4 240 / 91022.5 13.511.013.4
2017-Oct-12 04:00N 44°18' W 124°54'7 7.4 270 / 81022.4 13.710.813.1
2017-Oct-12 03:00N 44°24' W 125°00'0 0.0 300 / 101022.0 13.9 9.913.1
2017-Oct-12 02:00N 44°24' W 125°00'4 4.3 300 / 131021.6 14.0 9.013.2
2017-Oct-12 01:00N 44°24' W 124°54'4 4.3 300 / 111021.3 14.0 9.713.3
2017-Oct-12 00:00N 44°24' W 125°00'4 4.3 210 / 101021.3 11.8 9.213.7
2017-Oct-11 23:00N 44°24' W 124°54'0 0.0 210 / 71021.2 12.2 8.913.6
2017-Oct-11 22:00N 44°24' W 124°54'0 0.0 010 / 61021.0 11.5 8.513.5
2017-Oct-11 21:00N 44°24' W 124°54'4 4.3 050 / 101020.8 10.4 7.913.1
2017-Oct-11 20:00N 44°24' W 125°00'0 0.0 260 / 141020.1 13.2 9.013.2
2017-Oct-11 19:00N 44°24' W 125°00'0 0.0 280 / 141019.8 13.0 7.313.0
2017-Oct-11 18:00N 44°24' W 125°00'0 0.0 330 / 111019.4 13.3 7.013.7
2017-Oct-11 17:00N 44°24' W 125°00'0 0.0 320 / 171018.8 12.8 7.413.8
2017-Oct-11 16:00N 44°24' W 125°00'4 4.3 330 / 131018.2 12.6 8.413.5
2017-Oct-11 15:00N 44°24' W 124°54'0 0.0 350 / 141017.1 11.1 8.913.4
2017-Oct-11 14:00N 44°24' W 124°54'4 4.3 350 / 171016.5 10.8 9.413.3
2017-Oct-11 13:00N 44°24' W 124°48'1010.5 300 / 141015.6 11.2 9.212.8
2017-Oct-11 12:00N 44°30' W 124°36'1010.4 290 / 221015.2 9.9 7.413.0
2017-Oct-11 11:00N 44°36' W 124°24'4 4.3 290 / 171015.2 11.0 9.912.8
2017-Oct-11 10:00N 44°36' W 124°18'0 0.0 220 / 161015.4 12.610.212.7
2017-Oct-11 09:00N 44°36' W 124°18'0 0.0 180 / 181015.5 12.011.512.6
2017-Oct-11 08:00N 44°36' W 124°18'9 8.5 190 / 121015.9 11.911.712.2
2017-Oct-11 07:00N 44°36' W 124°30'9 8.5 170 / 111016.2 11.810.412.3
2017-Oct-11 06:00N 44°36' W 124°42'4 4.3 150 / 41016.6 12.010.412.5
2017-Oct-11 05:00N 44°36' W 124°36'1312.8 160 / 51016.5 11.5 9.512.2
2017-Oct-11 04:00N 44°36' W 124°18'0 0.0 140 / 31016.6 10.9 8.412.4
2017-Oct-11 03:00N 44°36' W 124°18'0 0.0 030 / 31016.9 11.2 9.712.3
2017-Oct-11 02:00N 44°36' W 124°18'0 0.0 220 / 21016.5 11.4 9.612.4
2017-Oct-11 01:00N 44°36' W 124°18'9 8.5 270 / 21016.3 11.710.6
2017-Oct-11 00:00N 44°36' W 124°06'4 4.3 350 / 151016.3 10.2 8.9
2017-Oct-10 23:00N 44°36' W 124°00'0 0.0 260 / 41015.9 12.311.2
2017-Oct-10 22:00N 44°36' W 124°00'0 0.0 250 / 21015.7 12.610.4
2017-Oct-10 21:00N 44°36' W 124°00'0 0.0 330 / 91015.9 12.210.5
2017-Oct-10 19:00N 44°36' W 124°00'0 0.0 210 / 141015.2 11.4
2017-Oct-10 18:00N 44°36' W 124°00'0 0.0 220 / 101015.4 11.611.2
2017-Oct-10 17:00N 44°36' W 124°00'0 0.0 100 / 61015.0 11.011.0
2017-Oct-10 16:00N 44°36' W 124°00'0 0.0 120 / 51014.8 9.8
2017-Oct-10 15:00N 44°36' W 124°00'0 0.0 110 / 41014.6 9.6
2017-Oct-10 14:00N 44°36' W 124°00'0 0.0 100 / 51014.2 9.8
2017-Oct-10 13:00N 44°36' W 124°00'0 0.0 070 / 21014.0 10.2
2017-Oct-10 12:00N 44°36' W 124°00'0 0.0 360 / 21013.6 11.611.4
2017-Oct-10 11:00N 44°36' W 124°00'0 0.0 340 / 71013.4 11.711.6
2017-Oct-10 10:00N 44°36' W 124°00'0 0.0 090 / 61013.3 10.3
2017-Oct-10 09:00N 44°36' W 124°00'0 0.0 110 / 31013.4 9.7
2017-Oct-10 08:00N 44°36' W 124°00'0 0.0 1013.4 10.8
2017-Oct-10 07:00N 44°36' W 124°00'0 0.0 020 / 21013.3 10.0
2017-Oct-10 06:00N 44°36' W 124°00'0 0.0 060 / 11013.2 10.410.4
2017-Oct-10 05:00N 44°36' W 124°00'0 0.0 110 / 31013.5 11.1
2017-Oct-10 04:00N 44°36' W 124°00'0 0.0 020 / 21014.0 11.611.6
2017-Oct-10 03:00N 44°36' W 124°00'0 0.0 190 / 11014.4 12.511.7
2017-Oct-10 02:00N 44°36' W 124°00'0 0.0 010 / 31014.5 14.211.9
2017-Oct-10 01:00N 44°36' W 124°00'0 0.0 320 / 51014.7 14.911.6
2017-Oct-10 00:00N 44°36' W 124°00'4 4.3 340 / 121015.4 15.111.2
2017-Oct-09 23:00N 44°36' W 124°06'0 0.0 330 / 141015.9 14.510.7
2017-Oct-09 22:00N 44°36' W 124°06'1 8.3 360 / 181016.9 13.210.412.2
2017-Oct-09 21:49N 44°36' W 124°08'4 6.8
2017-Oct-09 21:11N 44°40' W 124°06'212.4
2017-Oct-09 21:00N 44°42' W 124°06'221.7 360 / 161018.3 12.610.412.1
2017-Oct-09 20:53N 44°40' W 124°06'0 0.3
2017-Oct-09 20:17N 44°39' W 124°06'0 1.3
2017-Oct-09 20:00N 44°39' W 124°06'3282.7
2017-Oct-09 20:00N 44°42' W 124°06'612.2 350 / 101019.8 12.4 9.112.6
2017-Oct-09 19:29N 44°36' W 124°10'2 3.2
2017-Oct-09 19:00N 44°36' W 124°12'7 7.4 1020.8 12.4 9.012.7
2017-Oct-09 18:00N 44°42' W 124°18'390.4 030 / 111021.7 12.0 9.113.5
2017-Oct-09 17:58N 44°39' W 124°19'0 0.3
2017-Oct-09 17:30N 44°39' W 124°19'1 1.2
2017-Oct-09 17:00N 44°39' W 124°19'3358.7
2017-Oct-09 17:00N 44°36' W 124°18'2 2.9 050 / 101022.5 12.2 7.613.4
2017-Oct-09 16:11N 44°38' W 124°18'212.5
2017-Oct-09 16:00N 44°36' W 124°18'   080 / 111022.8 11.6 7.813.3
Track history (hours):
 
Tides and Currents Weather Stations Pressure Air Temp Water Temp Dewpoint Dewpoint Depression Visibility Wind Speed Wind Dir Waves Ship Positions

Oceanographic research ship Sikuliaq (USA)

Owner: Mackay Communications, Raleigh, NC. More information available from US FCC via Universal Licensing System.

Last reported at 2017-Oct-19 16:00 UTC. Time now 2017-Oct-19 16:37 UTC.
Position N 41°42' W 125°06'.

Length 80 m; draft 5.5 m.

Type: Other ship. MMSI: 338417000.

Wind from 170 at 33 knots

Barometer 1007.7 mb
Air temperature 12.8 ° C

Date/timePositionNaut miles runAvg speedWind from/ knotsBaromVisibWave heightAir tempDewpointWater temp
2017-Oct-19 16:00N 41°42' W 125°06'6 6.0 170 / 331007.7 12.8
2017-Oct-19 15:00N 41°48' W 125°06'7 7.5 170 / 291007.6 12.7
2017-Oct-19 14:00N 41°54' W 125°12'1212.0 170 / 291008.3 12.5
2017-Oct-19 13:00N 42°06' W 125°12'1212.0 160 / 261008.3 12.5
2017-Oct-19 12:00N 42°18' W 125°12'6 6.0 160 / 251008.5 12.5
2017-Oct-19 11:00N 42°24' W 125°12'1212.0 160 / 291008.2 12.9
2017-Oct-19 10:00N 42°36' W 125°12'1212.0 170 / 281008.6 13.2
2017-Oct-19 09:00N 42°48' W 125°12'6 6.0 170 / 281009.0 13.1
2017-Oct-19 08:00N 42°54' W 125°12'7 7.4 170 / 311008.7 13.1
2017-Oct-19 07:00N 43°00' W 125°06'1212.0 170 / 331009.0 13.3
2017-Oct-19 06:00N 43°12' W 125°06'7 7.4 170 / 311009.5 13.2
2017-Oct-19 05:00N 43°18' W 125°00'1212.0 180 / 301009.8 13.6
2017-Oct-19 04:00N 43°30' W 125°00'7 7.4 180 / 301010.0 13.5
2017-Oct-19 03:00N 43°36' W 124°54'1312.8 180 / 291010.3 13.7
2017-Oct-19 02:00N 43°48' W 124°48'7 7.4 180 / 261010.4 13.9
2017-Oct-19 01:00N 43°54' W 124°42'1312.8 180 / 271010.9 13.7
2017-Oct-19 00:00N 44°06' W 124°36'6 6.0 190 / 261011.6 13.5
2017-Oct-18 23:00N 44°12' W 124°36'1212.4 180 / 271011.7 13.3
2017-Oct-18 22:03N 44°22' W 124°27'349.1
2017-Oct-18 22:00N 44°24' W 124°24'234.8 180 / 251012.1 12.8
2017-Oct-18 21:56N 44°23' W 124°26'9 9.9
2017-Oct-18 21:00N 44°30' W 124°18'1010.4 180 / 271012.4 12.7
2017-Oct-18 20:00N 44°36' W 124°06'4 4.3 190 / 261013.1 12.8
2017-Oct-18 19:00N 44°36' W 124°00'0 0.0 210 / 161013.9 14.1
2017-Oct-18 18:00N 44°36' W 124°00'0 0.0 210 / 171014.3 14.6
2017-Oct-18 17:00N 44°36' W 124°00'0 0.0 200 / 71014.5 14.5
2017-Oct-18 16:00N 44°36' W 124°00'0 0.0 210 / 151014.7 13.6
2017-Oct-18 15:00N 44°36' W 124°00'0 0.0 200 / 121015.2 13.1
2017-Oct-18 14:00N 44°36' W 124°00'0 0.0 190 / 41015.9 12.8
2017-Oct-18 13:00N 44°36' W 124°00'0 0.0 210 / 81016.1 12.7
2017-Oct-18 12:00N 44°36' W 124°00'0 0.0 210 / 61016.4 12.2
2017-Oct-18 11:00N 44°36' W 124°00'0 0.0 240 / 41017.1 11.7
2017-Oct-18 10:00N 44°36' W 124°00'0 0.0 210 / 41017.6 12.2
2017-Oct-18 09:00N 44°36' W 124°00'0 0.0 230 / 51018.0 12.2
2017-Oct-18 08:00N 44°36' W 124°00'0 0.0 210 / 81018.2 12.4
2017-Oct-18 07:00N 44°36' W 124°00'0 0.0 230 / 61018.4 12.2
2017-Oct-18 06:00N 44°36' W 124°00'0 0.0 190 / 31018.8 12.4
2017-Oct-18 05:00N 44°36' W 124°00'0 0.0 170 / 11019.4 12.3
2017-Oct-18 04:00N 44°36' W 124°00'0 0.0 110 / 11019.7 12.2
2017-Oct-18 03:00N 44°36' W 124°00'0 0.0 280 1020.2 11.9
2017-Oct-18 02:00N 44°36' W 124°00'0 0.0 320 / 11020.4 12.2
2017-Oct-18 01:00N 44°36' W 124°00'0 0.0 220 / 31020.7 12.4
2017-Oct-18 00:00N 44°36' W 124°00'0 0.0 250 / 31021.5 12.4
2017-Oct-17 23:00N 44°36' W 124°00'0 0.0 210 / 61021.6 12.6
2017-Oct-17 22:00N 44°36' W 124°00'0 0.0 210 / 111021.4 12.812.7
2017-Oct-17 21:00N 44°36' W 124°00'0 0.0 220 / 81021.4 13.212.6
2017-Oct-17 20:00N 44°36' W 124°00'0 0.0 230 / 91021.6 12.712.7
2017-Oct-17 19:00N 44°36' W 124°00'0 0.0 220 / 91021.3 14.111.7
2017-Oct-17 18:00N 44°36' W 124°00'0 0.0 210 / 51021.3 14.312.0
2017-Oct-17 17:00N 44°36' W 124°00'0 0.0 180 / 51021.4 13.512.0
2017-Oct-17 16:00N 44°36' W 124°00'0 0.0 120 / 61021.1 10.910.9
2017-Oct-17 15:00N 44°36' W 124°00'0 0.0 110 / 51020.6 9.9
2017-Oct-17 14:00N 44°36' W 124°00'0 0.0 110 / 51019.8 9.0
2017-Oct-17 13:00N 44°36' W 124°00'0 0.0 120 / 71020.4 7.9
2017-Oct-17 12:00N 44°36' W 124°00'0 0.0 110 / 51020.6 7.4
2017-Oct-17 11:00N 44°36' W 124°00'0 0.0 110 / 61020.0 7.1
2017-Oct-17 10:00N 44°36' W 124°00'0 0.0 120 / 51020.2 7.5
2017-Oct-17 09:00N 44°36' W 124°00'0 0.0 130 / 51019.9 7.7
2017-Oct-17 08:00N 44°36' W 124°00'0 0.0 110 / 51019.5 7.9
2017-Oct-17 07:00N 44°36' W 124°00'0 0.0 110 / 51019.6 8.5
2017-Oct-17 06:00N 44°36' W 124°00'0 0.0 050 / 21019.7 8.9
2017-Oct-17 05:00N 44°36' W 124°00'0 0.0 100 / 21020.1 9.6
2017-Oct-17 04:00N 44°36' W 124°00'0 0.0 110 / 41020.5 10.3
2017-Oct-17 03:00N 44°36' W 124°00'0 0.0 070 / 21021.0 11.310.4
2017-Oct-17 02:00N 44°36' W 124°00'0 0.0 050 / 21021.1 12.210.7
2017-Oct-17 01:00N 44°36' W 124°00'0 0.0 340 / 71021.5 13.011.0
2017-Oct-17 00:00N 44°36' W 124°00'0 0.0 340 / 141021.9 13.210.6
2017-Oct-16 23:00N 44°36' W 124°00'0 0.0 330 / 181022.5 13.510.6
2017-Oct-16 22:00N 44°36' W 124°00'0 0.0 330 / 121022.3 13.710.3
2017-Oct-16 21:00N 44°36' W 124°00'0 0.0 320 / 111022.7 13.810.2
2017-Oct-16 20:00N 44°36' W 124°00'0 0.0 310 / 121023.5 12.810.2
2017-Oct-16 19:00N 44°36' W 124°00'3 7.6 300 / 41024.1 12.010.2
2017-Oct-16 18:36N 44°37' W 124°04'1 6.7
2017-Oct-16 18:27N 44°36' W 124°05'1 1.6
2017-Oct-16 18:00N 44°36' W 124°06'1492.4 350 / 121024.5 10.810.8
2017-Oct-16 17:59N 44°36' W 124°08'0 0.1
2017-Oct-16 17:29N 44°36' W 124°08'1 2.8
2017-Oct-16 17:00N 44°36' W 124°06'1379.3 060 / 31024.5 9.9 9.1
2017-Oct-16 16:59N 44°36' W 124°08'0 0.0
2017-Oct-16 16:30N 44°36' W 124°08'3 5.7
2017-Oct-16 16:00N 44°36' W 124°12'1 3.2 070 / 41024.3 9.4 11.8
2017-Oct-16 15:44N 44°37' W 124°13'2 8.4
2017-Oct-16 15:27N 44°37' W 124°16'612.0
2017-Oct-16 15:00N 44°42' W 124°18'2678.8 020 / 151023.6 11.2 12.1
2017-Oct-16 14:59N 44°40' W 124°18'3 5.5
2017-Oct-16 14:30N 44°38' W 124°20'2 4.3
2017-Oct-16 14:00N 44°36' W 124°18'4 7.3 010 / 101023.8 11.5 12.0
2017-Oct-16 13:30N 44°40' W 124°18'4 7.0
2017-Oct-16 13:00N 44°36' W 124°18'2270.7 020 / 131023.2 11.8 12.0
2017-Oct-16 12:59N 44°37' W 124°19'2 3.6
2017-Oct-16 12:29N 44°39' W 124°18'1 2.4
2017-Oct-16 12:00N 44°38' W 124°18'2153.4
2017-Oct-16 12:00N 44°36' W 124°18'4 6.3 010 / 141023.2 11.7 12.0
2017-Oct-16 11:21N 44°40' W 124°20'3 7.6
2017-Oct-16 11:00N 44°37' W 124°20'2204.1
2017-Oct-16 11:00N 44°36' W 124°18'6 6.0 010 / 151023.6 12.012.012.0
2017-Oct-16 10:00N 44°42' W 124°18'5 9.4 010 / 161023.8 11.9 12.1
2017-Oct-16 09:30N 44°39' W 124°23'0 0.1
2017-Oct-16 09:01N 44°39' W 124°23'3172.7
2017-Oct-16 09:00N 44°42' W 124°24'4 4.8 1023.8 11.8 11.8
2017-Oct-16 08:03N 44°40' W 124°18'0 3.0
2017-Oct-16 08:00N 44°40' W 124°18'2146.7
2017-Oct-16 08:00N 44°42' W 124°18'6 6.0 010 / 121023.5 11.9 12.1
2017-Oct-16 07:00N 44°36' W 124°18'315.8 1023.8 12.1 12.2
2017-Oct-16 06:47N 44°39' W 124°19'1 3.9
2017-Oct-16 06:29N 44°38' W 124°18'0 0.9
2017-Oct-16 06:00N 44°38' W 124°18'2145.2
2017-Oct-16 06:00N 44°36' W 124°18'0 0.0 010 / 161023.9 12.3 12.2
2017-Oct-16 05:00N 44°36' W 124°18'4 5.7 1023.8 12.312.311.8
2017-Oct-16 04:21N 44°39' W 124°20'1 2.9
2017-Oct-16 04:00N 44°38' W 124°20'3205.0
2017-Oct-16 04:00N 44°36' W 124°18'0 0.0 010 / 181023.8 12.412.411.8
2017-Oct-16 03:00N 44°36' W 124°18'221.2 1023.8 12.412.411.8
2017-Oct-16 02:55N 44°38' W 124°18'2 1.8
2017-Oct-16 02:00N 44°36' W 124°18'6 8.6 010 / 181023.3 12.412.212.0
2017-Oct-16 01:19N 44°39' W 124°11'514.3
2017-Oct-16 01:00N 44°42' W 124°06'363.0 360 / 161022.9 11.9 11.9
2017-Oct-16 00:57N 44°39' W 124°07'1 1.8
2017-Oct-16 00:30N 44°40' W 124°06'2 4.8
2017-Oct-16 00:00N 44°42' W 124°06'2 8.5 350 / 151022.9 11.911.511.9
2017-Oct-15 23:42N 44°40' W 124°06'2 4.2
2017-Oct-15 23:19N 44°39' W 124°08'2 7.9
2017-Oct-15 23:01N 44°39' W 124°11'3179.3
2017-Oct-15 23:00N 44°36' W 124°12'5 6.8 350 / 141023.0 12.112.012.2
2017-Oct-15 22:16N 44°38' W 124°18'2 7.9
2017-Oct-15 22:00N 44°36' W 124°18'223.9 350 / 121023.6 12.211.812.1
2017-Oct-15 21:54N 44°38' W 124°18'1 1.3
2017-Oct-15 21:17N 44°39' W 124°19'0 0.4
2017-Oct-15 21:00N 44°39' W 124°19'3184.1
2017-Oct-15 21:00N 44°36' W 124°18'3 5.2 1023.8 11.811.212.0
2017-Oct-15 20:30N 44°39' W 124°19'0 0.4
2017-Oct-15 20:01N 44°38' W 124°19'2147.4
2017-Oct-15 20:00N 44°36' W 124°18'2 3.7 350 / 81024.3 11.710.811.8
2017-Oct-15 19:25N 44°38' W 124°18'2 5.2
2017-Oct-15 19:00N 44°36' W 124°18'210.3 340 / 61024.6 11.6 9.811.8
2017-Oct-15 18:48N 44°38' W 124°18'0 0.1
2017-Oct-15 18:24N 44°38' W 124°18'2 4.8
2017-Oct-15 18:00N 44°36' W 124°18'0 0.0 050 / 41024.4 11.7 9.111.7
2017-Oct-15 17:00N 44°36' W 124°18'0 0.0 020 / 51024.4 11.5 9.311.7
2017-Oct-15 16:00N 44°36' W 124°18'0 0.0 1024.3 11.2 7.611.7
2017-Oct-15 15:00N 44°36' W 124°18'0 0.0 030 / 71024.0 11.1 7.911.7
2017-Oct-15 14:00N 44°36' W 124°18'6 6.0 030 / 71024.2 11.1 7.911.8
2017-Oct-15 13:00N 44°42' W 124°18'6 6.0 050 / 71024.4 10.9 7.211.9
2017-Oct-15 12:00N 44°36' W 124°18'0 0.0 030 / 81024.6 11.5 9.011.9
2017-Oct-15 11:00N 44°36' W 124°18'0 0.0 020 / 91025.3 11.7 8.912.0
2017-Oct-15 10:00N 44°36' W 124°18'6 6.0 010 / 61025.9 11.4 7.912.1
2017-Oct-15 09:00N 44°42' W 124°18'6 6.0 040 / 121025.9 11.3 9.512.0
2017-Oct-15 08:00N 44°36' W 124°18'0 0.0 020 / 171026.1 11.8 8.911.9
2017-Oct-15 07:00N 44°36' W 124°18'0 0.0 030 / 121026.6 11.6 9.611.9
2017-Oct-15 06:00N 44°36' W 124°18'7 7.4 050 / 151027.4 12.0 9.512.0
2017-Oct-15 05:00N 44°42' W 124°12'4 4.3 030 / 91027.9 11.8 8.412.0
2017-Oct-15 04:00N 44°42' W 124°06'0 0.0 130 / 31028.0 10.810.012.0
2017-Oct-15 03:00N 44°42' W 124°06'0 0.0 010 / 91028.1 11.7 8.912.0
2017-Oct-15 02:00N 44°42' W 124°06'0 0.0 010 / 141028.3 12.1 9.212.1
2017-Oct-15 01:00N 44°42' W 124°06'6 6.0 360 / 151028.9 11.8 8.712.1
2017-Oct-15 00:00N 44°36' W 124°06'4 4.3 350 / 171029.1 11.9 8.912.1
2017-Oct-14 23:00N 44°36' W 124°12'5 5.4 350 / 151030.0 12.0 8.412.3
2017-Oct-14 22:03N 44°38' W 124°18'238.3
2017-Oct-14 22:00N 44°36' W 124°18'0 0.0 1030.9 11.6 6.212.2
2017-Oct-14 21:00N 44°36' W 124°18'339.5 020 / 91031.4 11.1 7.312.2
2017-Oct-14 20:56N 44°39' W 124°19'3 2.7
2017-Oct-14 20:00N 44°36' W 124°18'2 6.4 040 / 81031.9 11.9 8.312.1
2017-Oct-14 19:37N 44°38' W 124°18'2 4.0
2017-Oct-14 19:00N 44°36' W 124°18'0 0.0 080 / 101032.2 10.9 7.511.9
2017-Oct-14 18:00N 44°36' W 124°18'2 3.4 090 / 101032.5 9.9 7.411.9
2017-Oct-14 17:24N 44°38' W 124°18'2 5.1
2017-Oct-14 17:00N 44°36' W 124°18'214.7 100 / 71032.7 9.9 7.711.8
2017-Oct-14 16:51N 44°38' W 124°18'0 0.0
2017-Oct-14 16:30N 44°38' W 124°18'2 4.0
2017-Oct-14 16:00N 44°36' W 124°18'0 0.0 100 / 81032.5 8.6 7.611.8
2017-Oct-14 15:00N 44°36' W 124°18'0 0.0 110 / 51032.4 8.0 8.012.0
2017-Oct-14 14:00N 44°36' W 124°18'0 0.0 100 / 71032.3 8.8 8.812.1
2017-Oct-14 13:00N 44°36' W 124°18'0 0.0 090 / 81032.3 8.7 8.712.1
2017-Oct-14 12:00N 44°36' W 124°18'4 4.3 100 / 51032.0 8.9 8.912.0
2017-Oct-14 11:00N 44°36' W 124°24'414.7 100 / 61031.6 10.210.212.4
2017-Oct-14 10:45N 44°38' W 124°28'310.3
2017-Oct-14 10:28N 44°36' W 124°32'713.9
2017-Oct-14 10:00N 44°30' W 124°36'1010.5 110 / 31031.5 11.9 9.812.7
2017-Oct-14 09:00N 44°24' W 124°48'4 4.3 090 / 71031.1 12.5 9.613.4
2017-Oct-14 08:00N 44°24' W 124°54'0 0.0 030 / 111030.7 13.2 7.714.3
2017-Oct-14 07:00N 44°24' W 124°54'4 4.3 030 / 111030.5 13.3 7.214.2
2017-Oct-14 06:00N 44°24' W 125°00'7 7.4 050 / 71030.1 13.0 9.014.3
2017-Oct-14 05:00N 44°18' W 124°54'7 7.4 070 / 81029.4 13.0 9.114.2
2017-Oct-14 04:00N 44°24' W 125°00'0 0.0 020 / 151028.6 13.7 7.914.2
2017-Oct-14 03:00N 44°24' W 125°00'0 0.0 050 / 121028.1 13.5 9.214.2
2017-Oct-14 02:00N 44°24' W 125°00'0 0.0 010 / 121027.3 13.7 9.014.1
2017-Oct-14 01:00N 44°24' W 125°00'4 4.3 020 / 131026.6 13.810.314.2
2017-Oct-14 00:00N 44°24' W 124°54'0 0.0 340 / 81025.9 13.710.914.2
2017-Oct-13 23:00N 44°24' W 124°54'0 0.0 330 / 41025.6 13.311.514.2
2017-Oct-13 22:00N 44°24' W 124°54'4 4.3 340 / 51025.1 12.911.214.3
2017-Oct-13 21:00N 44°24' W 125°00'0 0.0 010 / 61024.9 12.511.914.5
2017-Oct-13 20:00N 44°24' W 125°00'0 0.0 010 / 61024.7 11.9 14.4
2017-Oct-13 19:00N 44°24' W 125°00'4 4.3 310 / 181024.2 13.911.514.3
2017-Oct-13 18:00N 44°24' W 124°54'0 0.0 280 / 111023.7 13.012.014.3
2017-Oct-13 17:00N 44°24' W 124°54'0 0.0 300 / 81023.4 12.511.514.2
2017-Oct-13 16:00N 44°24' W 124°54'0 0.0 330 / 61023.1 12.712.414.2
2017-Oct-13 15:00N 44°24' W 124°54'0 0.0 340 / 181022.5 12.6 14.1
2017-Oct-13 14:00N 44°24' W 124°54'0 0.0 290 / 151022.3 13.911.114.0
2017-Oct-13 13:00N 44°24' W 124°54'0 0.0 270 / 151022.3 13.011.214.0
2017-Oct-13 12:00N 44°24' W 124°54'0 0.0 280 / 141022.2 13.712.313.9
2017-Oct-13 11:00N 44°24' W 124°54'0 0.0 280 / 151022.4 13.512.313.9
2017-Oct-13 10:00N 44°24' W 124°54'0 0.0 270 / 141022.5 13.612.314.0
2017-Oct-13 09:00N 44°24' W 124°54'0 0.0 270 / 151022.4 13.711.614.0
2017-Oct-13 08:00N 44°24' W 124°54'0 0.0 270 / 121022.6 13.712.314.2
2017-Oct-13 07:00N 44°24' W 124°54'0 0.0 280 / 161022.4 13.811.414.4
2017-Oct-13 06:00N 44°24' W 124°54'4 4.3 260 / 71022.4 12.912.214.5
2017-Oct-13 05:00N 44°24' W 125°00'0 0.0 280 / 121022.1 13.612.514.4
2017-Oct-13 04:00N 44°24' W 125°00'4 4.3 310 / 101021.8 13.811.714.3
2017-Oct-13 03:00N 44°24' W 124°54'1010.5 300 / 151021.2 13.912.014.2
2017-Oct-13 02:00N 44°30' W 124°42'9 8.6 310 / 121020.6 12.812.313.1
2017-Oct-13 01:00N 44°30' W 124°30'1010.4 270 / 91020.2 13.112.513.0
2017-Oct-13 00:00N 44°36' W 124°18'4 4.3 260 / 121020.1 13.012.012.2
2017-Oct-12 23:00N 44°36' W 124°12'7 7.4 260 / 111020.1 12.611.712.0
2017-Oct-12 22:00N 44°42' W 124°06'0 0.0 260 / 131020.1 12.011.012.2
2017-Oct-12 21:00N 44°42' W 124°06'0 0.0 250 / 121020.2 12.311.212.2
2017-Oct-12 20:00N 44°42' W 124°06'0 0.0 220 / 141020.1 12.412.412.2
2017-Oct-12 19:00N 44°42' W 124°06'0 0.0 220 / 141020.0 12.611.412.1
2017-Oct-12 18:00N 44°42' W 124°06'0 0.0 230 / 151019.8 12.311.812.1
2017-Oct-12 17:00N 44°42' W 124°06'0 0.0 230 / 161019.8 12.412.412.2
2017-Oct-12 16:00N 44°42' W 124°06'0 0.0 240 / 171019.6 12.412.412.1
2017-Oct-12 15:00N 44°42' W 124°06'7 7.4 220 / 181019.3 12.612.612.1
2017-Oct-12 14:00N 44°36' W 124°12'4 4.3 220 / 181019.4 12.1 12.3
2017-Oct-12 13:00N 44°36' W 124°18'0 0.0 230 / 151019.8 12.112.111.9
2017-Oct-12 12:00N 44°36' W 124°18'0 0.0 230 / 171020.2 11.911.812.0
2017-Oct-12 11:00N 44°36' W 124°18'0 0.0 200 / 211020.3 11.9 12.1
2017-Oct-12 10:00N 44°36' W 124°18'9 8.5 180 / 241021.0 11.3 12.5
2017-Oct-12 09:00N 44°36' W 124°30'1010.4 180 / 191021.5 11.811.811.6
2017-Oct-12 08:00N 44°30' W 124°42'1010.5 170 / 91022.2 11.711.012.0
2017-Oct-12 07:00N 44°24' W 124°54'4 4.3 330 / 71022.5 12.910.713.2
2017-Oct-12 06:00N 44°24' W 125°00'0 0.0 280 / 141022.7 13.510.713.7
2017-Oct-12 05:00N 44°24' W 125°00'7 7.4 240 / 91022.5 13.511.013.4
2017-Oct-12 04:00N 44°18' W 124°54'7 7.4 270 / 81022.4 13.710.813.1
2017-Oct-12 03:00N 44°24' W 125°00'0 0.0 300 / 101022.0 13.9 9.913.1
2017-Oct-12 02:00N 44°24' W 125°00'4 4.3 300 / 131021.6 14.0 9.013.2
2017-Oct-12 01:00N 44°24' W 124°54'4 4.3 300 / 111021.3 14.0 9.713.3
2017-Oct-12 00:00N 44°24' W 125°00'4 4.3 210 / 101021.3 11.8 9.213.7
2017-Oct-11 23:00N 44°24' W 124°54'0 0.0 210 / 71021.2 12.2 8.913.6
2017-Oct-11 22:00N 44°24' W 124°54'0 0.0 010 / 61021.0 11.5 8.513.5
2017-Oct-11 21:00N 44°24' W 124°54'4 4.3 050 / 101020.8 10.4 7.913.1
2017-Oct-11 20:00N 44°24' W 125°00'0 0.0 260 / 141020.1 13.2 9.013.2
2017-Oct-11 19:00N 44°24' W 125°00'0 0.0 280 / 141019.8 13.0 7.313.0
2017-Oct-11 18:00N 44°24' W 125°00'0 0.0 330 / 111019.4 13.3 7.013.7
2017-Oct-11 17:00N 44°24' W 125°00'0 0.0 320 / 171018.8 12.8 7.413.8
2017-Oct-11 16:00N 44°24' W 125°00'4 4.3 330 / 131018.2 12.6 8.413.5
2017-Oct-11 15:00N 44°24' W 124°54'0 0.0 350 / 141017.1 11.1 8.913.4
2017-Oct-11 14:00N 44°24' W 124°54'4 4.3 350 / 171016.5 10.8 9.413.3
2017-Oct-11 13:00N 44°24' W 124°48'1010.5 300 / 141015.6 11.2 9.212.8
2017-Oct-11 12:00N 44°30' W 124°36'1010.4 290 / 221015.2 9.9 7.413.0
2017-Oct-11 11:00N 44°36' W 124°24'4 4.3 290 / 171015.2 11.0 9.912.8
2017-Oct-11 10:00N 44°36' W 124°18'0 0.0 220 / 161015.4 12.610.212.7
2017-Oct-11 09:00N 44°36' W 124°18'0 0.0 180 / 181015.5 12.011.512.6
2017-Oct-11 08:00N 44°36' W 124°18'9 8.5 190 / 121015.9 11.911.712.2
2017-Oct-11 07:00N 44°36' W 124°30'9 8.5 170 / 111016.2 11.810.412.3
2017-Oct-11 06:00N 44°36' W 124°42'4 4.3 150 / 41016.6 12.010.412.5
2017-Oct-11 05:00N 44°36' W 124°36'1312.8 160 / 51016.5 11.5 9.512.2
2017-Oct-11 04:00N 44°36' W 124°18'0 0.0 140 / 31016.6 10.9 8.412.4
2017-Oct-11 03:00N 44°36' W 124°18'0 0.0 030 / 31016.9 11.2 9.712.3
2017-Oct-11 02:00N 44°36' W 124°18'0 0.0 220 / 21016.5 11.4 9.612.4
2017-Oct-11 01:00N 44°36' W 124°18'9 8.5 270 / 21016.3 11.710.6
2017-Oct-11 00:00N 44°36' W 124°06'4 4.3 350 / 151016.3 10.2 8.9
2017-Oct-10 23:00N 44°36' W 124°00'0 0.0 260 / 41015.9 12.311.2
2017-Oct-10 22:00N 44°36' W 124°00'0 0.0 250 / 21015.7 12.610.4
2017-Oct-10 21:00N 44°36' W 124°00'0 0.0 330 / 91015.9 12.210.5
2017-Oct-10 19:00N 44°36' W 124°00'0 0.0 210 / 141015.2 11.4
2017-Oct-10 18:00N 44°36' W 124°00'0 0.0 220 / 101015.4 11.611.2
2017-Oct-10 17:00N 44°36' W 124°00'0 0.0 100 / 61015.0 11.011.0
2017-Oct-10 16:00N 44°36' W 124°00'0 0.0 120 / 51014.8 9.8
2017-Oct-10 15:00N 44°36' W 124°00'0 0.0 110 / 41014.6 9.6
2017-Oct-10 14:00N 44°36' W 124°00'0 0.0 100 / 51014.2 9.8
2017-Oct-10 13:00N 44°36' W 124°00'0 0.0 070 / 21014.0 10.2
2017-Oct-10 12:00N 44°36' W 124°00'0 0.0 360 / 21013.6 11.611.4
2017-Oct-10 11:00N 44°36' W 124°00'0 0.0 340 / 71013.4 11.711.6
2017-Oct-10 10:00N 44°36' W 124°00'0 0.0 090 / 61013.3 10.3
2017-Oct-10 09:00N 44°36' W 124°00'0 0.0 110 / 31013.4 9.7
2017-Oct-10 08:00N 44°36' W 124°00'0 0.0 1013.4 10.8
2017-Oct-10 07:00N 44°36' W 124°00'0 0.0 020 / 21013.3 10.0
2017-Oct-10 06:00N 44°36' W 124°00'0 0.0 060 / 11013.2 10.410.4
2017-Oct-10 05:00N 44°36' W 124°00'0 0.0 110 / 31013.5 11.1
2017-Oct-10 04:00N 44°36' W 124°00'0 0.0 020 / 21014.0 11.611.6
2017-Oct-10 03:00N 44°36' W 124°00'0 0.0 190 / 11014.4 12.511.7
2017-Oct-10 02:00N 44°36' W 124°00'0 0.0 010 / 31014.5 14.211.9
2017-Oct-10 01:00N 44°36' W 124°00'0 0.0 320 / 51014.7 14.911.6
2017-Oct-10 00:00N 44°36' W 124°00'4 4.3 340 / 121015.4 15.111.2
2017-Oct-09 23:00N 44°36' W 124°06'0 0.0 330 / 141015.9 14.510.7
2017-Oct-09 22:00N 44°36' W 124°06'1 8.3 360 / 181016.9 13.210.412.2
2017-Oct-09 21:49N 44°36' W 124°08'4 6.8
2017-Oct-09 21:11N 44°40' W 124°06'212.4
2017-Oct-09 21:00N 44°42' W 124°06'221.7 360 / 161018.3 12.610.412.1
2017-Oct-09 20:53N 44°40' W 124°06'0 0.3
2017-Oct-09 20:17N 44°39' W 124°06'0 1.3
2017-Oct-09 20:00N 44°39' W 124°06'3282.7
2017-Oct-09 20:00N 44°42' W 124°06'612.2 350 / 101019.8 12.4 9.112.6
2017-Oct-09 19:29N 44°36' W 124°10'2 3.2
2017-Oct-09 19:00N 44°36' W 124°12'7 7.4 1020.8 12.4 9.012.7
2017-Oct-09 18:00N 44°42' W 124°18'390.4 030 / 111021.7 12.0 9.113.5
2017-Oct-09 17:58N 44°39' W 124°19'0 0.3
2017-Oct-09 17:30N 44°39' W 124°19'1 1.2
2017-Oct-09 17:00N 44°39' W 124°19'3358.7
2017-Oct-09 17:00N 44°36' W 124°18'2 2.9 050 / 101022.5 12.2 7.613.4
2017-Oct-09 16:11N 44°38' W 124°18'212.5
2017-Oct-09 16:00N 44°36' W 124°18'   080 / 111022.8 11.6 7.813.3

Dump ship's entire track history